Time;durP1;ratioP1;P1;durP2;ratioP2;P2;SDS_P1;SDS_P2;PMS_P1;PMS_P2;Temp;Humidity;BMP_temperature;BMP_pressure;BME280_temperature;BME280_humidity;BME280_pressure;Samples;Min_cycle;Max_cycle;Signal;HPM_P1;HPM_P2
2023/05/08 00:01:37;;;;;;;19.43;16.50;;;;;;;;;;5030433;28;20052;-60
2023/05/08 00:04:03;;;;;;;19.47;16.27;;;;;;;;;;5031286;28;20045;-60
2023/05/08 00:06:29;;;;;;;17.80;15.90;;;;;;;;;;5030100;28;20045;-60
2023/05/08 00:08:56;;;;;;;18.00;16.10;;;;;;;;;;5030508;28;20412;-60
2023/05/08 00:11:22;;;;;;;18.50;16.40;;;;;;;;;;5031585;28;20049;-59
2023/05/08 00:13:48;;;;;;;18.60;16.60;;;;;;;;;;5050074;28;20474;-60
2023/05/08 00:16:14;;;;;;;19.13;16.83;;;;;;;;;;5051000;28;20049;-60
2023/05/08 00:18:40;;;;;;;19.57;17.57;;;;;;;;;;5050396;28;20056;-60
2023/05/08 00:21:07;;;;;;;19.47;16.17;;;;;;;;;;5032497;28;20048;-60
2023/05/08 00:23:33;;;;;;;18.67;16.77;;;;;;;;;;5049913;28;20044;-60
2023/05/08 00:25:59;;;;;;;19.23;17.23;;;;;;;;;;5049697;28;20067;-60
2023/05/08 00:28:26;;;;;;;23.87;18.13;;;;;;;;;;5049663;28;20041;-60
2023/05/08 00:30:52;;;;;;;17.83;15.97;;;;;;;;;;5048873;28;20069;-60
2023/05/08 00:33:18;;;;;;;19.10;16.57;;;;;;;;;;5049565;28;20135;-60
2023/05/08 00:35:44;;;;;;;20.17;17.77;;;;;;;;;;5048287;28;20400;-60
2023/05/08 00:38:10;;;;;;;20.20;17.20;;;;;;;;;;5029388;28;20843;-60
2023/05/08 00:40:36;;;;;;;20.23;17.43;;;;;;;;;;5030007;28;20046;-60
2023/05/08 00:43:02;;;;;;;18.53;16.60;;;;;;;;;;5029939;28;20419;-59
2023/05/08 00:45:39;;;;;;;18.43;16.20;;;;;;;;;;5030004;28;20475;-60
2023/05/08 00:48:06;;;;;;;21.00;17.53;;;;;;;;;;5030025;28;20412;-60
2023/05/08 00:50:32;;;;;;;22.63;16.77;;;;;;;;;;5030553;28;20459;-60
2023/05/08 00:53:00;;;;;;;22.70;16.83;;;;;;;;;;5029898;28;20045;-60
2023/05/08 00:55:26;;;;;;;19.73;16.87;;;;;;;;;;5050947;28;20041;-60
2023/05/08 00:57:52;;;;;;;21.00;18.77;;;;;;;;;;5049848;28;20057;-60
2023/05/08 01:00:19;;;;;;;22.20;17.20;;;;;;;;;;5049622;28;20090;-60
2023/05/08 01:02:46;;;;;;;21.23;19.03;;;;;;;;;;5049405;28;20048;-60
2023/05/08 01:05:12;;;;;;;21.00;18.73;;;;;;;;;;5049099;28;20048;-60
2023/05/08 01:07:38;;;;;;;23.77;19.07;;;;;;;;;;5049473;28;20041;-60
2023/05/08 01:10:05;;;;;;;20.57;17.83;;;;;;;;;;5049170;28;20041;-60
2023/05/08 01:12:34;;;;;;;21.53;18.30;;;;;;;;;;5049573;28;20461;-61
2023/05/08 01:15:18;;;;;;;22.23;19.17;;;;;;;;;;5048834;28;20434;-60
2023/05/08 01:17:50;;;;;;;22.43;19.60;;;;;;;;;;5049508;28;20044;-60
2023/05/08 01:20:29;;;;;;;23.57;20.27;;;;;;;;;;5038199;28;20045;-60
2023/05/08 01:23:03;;;;;;;24.33;20.17;;;;;;;;;;5049432;28;20045;-60
2023/05/08 01:25:50;;;;;;;23.47;20.63;;;;;;;;;;5048823;28;20049;-60
2023/05/08 01:28:28;;;;;;;22.80;18.93;;;;;;;;;;5033712;28;20061;-60
2023/05/08 01:31:15;;;;;;;26.07;21.30;;;;;;;;;;5028890;28;20526;-60
2023/05/08 01:33:47;;;;;;;24.10;21.17;;;;;;;;;;5041926;28;20140;-60
2023/05/08 01:36:23;;;;;;;23.73;20.60;;;;;;;;;;5049339;28;20042;-59
2023/05/08 01:38:55;;;;;;;24.43;20.83;;;;;;;;;;5049192;28;20037;-60
2023/05/08 01:41:26;;;;;;;23.83;21.17;;;;;;;;;;5049021;28;20091;-60
2023/05/08 01:43:54;;;;;;;24.53;21.27;;;;;;;;;;5048860;28;20106;-59
2023/05/08 01:46:23;;;;;;;26.07;21.23;;;;;;;;;;5038867;28;20819;-60
2023/05/08 01:48:51;;;;;;;25.00;22.07;;;;;;;;;;5029344;28;20046;-60
2023/05/08 01:51:18;;;;;;;24.90;21.80;;;;;;;;;;5028814;28;20690;-60
2023/05/08 01:53:47;;;;;;;23.83;21.27;;;;;;;;;;5028822;28;20060;-60
2023/05/08 01:56:18;;;;;;;27.00;21.40;;;;;;;;;;5029352;28;20462;-60
2023/05/08 01:58:44;;;;;;;27.43;21.10;;;;;;;;;;5028977;28;20072;-61
2023/05/08 02:01:12;;;;;;;26.40;22.30;;;;;;;;;;5036272;28;20045;-60
2023/05/08 02:03:42;;;;;;;23.77;20.67;;;;;;;;;;5029090;28;20451;-60
2023/05/08 02:06:09;;;;;;;26.47;21.30;;;;;;;;;;5028872;28;20495;-60
2023/05/08 02:08:36;;;;;;;26.50;21.27;;;;;;;;;;5029124;28;20086;-60
2023/05/08 02:11:03;;;;;;;24.57;21.87;;;;;;;;;;5028639;28;20129;-60
2023/05/08 02:13:30;;;;;;;23.10;20.63;;;;;;;;;;5029061;28;20085;-60
2023/05/08 02:15:56;;;;;;;23.80;21.17;;;;;;;;;;5028651;28;20577;-63
2023/05/08 02:18:23;;;;;;;24.97;21.07;;;;;;;;;;5032736;28;20518;-60
2023/05/08 02:20:50;;;;;;;25.63;20.80;;;;;;;;;;5048468;28;20079;-60
2023/05/08 02:23:18;;;;;;;26.17;21.70;;;;;;;;;;5048904;28;20041;-61
2023/05/08 02:25:45;;;;;;;26.43;22.03;;;;;;;;;;5048151;28;20045;-60
2023/05/08 02:28:11;;;;;;;26.73;22.17;;;;;;;;;;5031125;28;20045;-61
2023/05/08 02:30:38;;;;;;;25.13;21.90;;;;;;;;;;5038732;28;20045;-61
2023/05/08 02:33:06;;;;;;;26.90;21.77;;;;;;;;;;5028300;28;20049;-60
2023/05/08 02:35:34;;;;;;;24.20;20.60;;;;;;;;;;5034099;28;20396;-60
2023/05/08 02:38:01;;;;;;;28.33;23.17;;;;;;;;;;5048403;28;20052;-60
2023/05/08 02:40:28;;;;;;;27.23;22.77;;;;;;;;;;5048390;28;20041;-61
2023/05/08 02:42:55;;;;;;;28.40;21.37;;;;;;;;;;5048530;28;20132;-60
2023/05/08 02:45:23;;;;;;;25.63;21.10;;;;;;;;;;5039409;28;20041;-60
2023/05/08 02:48:07;;;;;;;25.80;21.33;;;;;;;;;;5031902;28;20037;-61
2023/05/08 02:50:42;;;;;;;27.37;22.30;;;;;;;;;;5032343;28;20515;-61
2023/05/08 02:53:10;;;;;;;31.63;24.33;;;;;;;;;;5032463;28;20095;-60
2023/05/08 02:55:42;;;;;;;29.33;22.13;;;;;;;;;;5032402;28;20045;-60
2023/05/08 02:58:11;;;;;;;26.50;21.53;;;;;;;;;;5032280;28;20041;-60
2023/05/08 03:00:42;;;;;;;29.27;23.03;;;;;;;;;;5030942;28;20049;-60
2023/05/08 03:03:21;;;;;;;28.37;22.53;;;;;;;;;;5032144;28;20638;-60
2023/05/08 03:05:51;;;;;;;28.00;22.40;;;;;;;;;;5031747;28;20420;-61
2023/05/08 03:08:20;;;;;;;27.73;22.53;;;;;;;;;;5032229;28;20056;-61
2023/05/08 03:10:48;;;;;;;28.27;22.37;;;;;;;;;;5047381;28;20049;-60
2023/05/08 03:13:15;;;;;;;27.00;22.80;;;;;;;;;;5040708;28;20099;-60
2023/05/08 03:15:44;;;;;;;23.77;20.40;;;;;;;;;;5031783;28;20067;-60
2023/05/08 03:18:13;;;;;;;27.83;22.30;;;;;;;;;;5031911;28;20041;-60
2023/05/08 03:20:41;;;;;;;27.43;22.60;;;;;;;;;;5032185;28;20729;-60
2023/05/08 03:23:09;;;;;;;29.87;23.50;;;;;;;;;;5031598;28;20504;-60
2023/05/08 03:25:37;;;;;;;27.33;22.10;;;;;;;;;;5031633;28;20507;-60
2023/05/08 03:28:03;;;;;;;28.33;21.87;;;;;;;;;;5046609;28;20427;-60
2023/05/08 03:30:31;;;;;;;25.07;21.53;;;;;;;;;;5033641;28;20064;-61
2023/05/08 03:32:58;;;;;;;27.00;22.13;;;;;;;;;;5029712;28;20067;-60
2023/05/08 03:35:25;;;;;;;29.10;22.67;;;;;;;;;;5029449;28;20837;-61
2023/05/08 03:37:52;;;;;;;26.57;21.60;;;;;;;;;;5037319;28;20128;-60
2023/05/08 03:40:19;;;;;;;26.87;21.90;;;;;;;;;;5049899;28;20095;-60
2023/05/08 03:42:45;;;;;;;27.03;22.47;;;;;;;;;;5049828;28;20059;-61
2023/05/08 03:45:12;;;;;;;28.70;22.00;;;;;;;;;;5042052;28;20076;-60
2023/05/08 03:47:39;;;;;;;28.37;21.83;;;;;;;;;;5043901;28;20041;-61
2023/05/08 03:50:07;;;;;;;28.03;22.20;;;;;;;;;;5030874;28;20041;-60
2023/05/08 03:52:33;;;;;;;28.13;22.87;;;;;;;;;;5031010;28;20095;-60
2023/05/08 03:55:00;;;;;;;32.03;21.80;;;;;;;;;;5031025;28;20084;-60
2023/05/08 03:57:30;;;;;;;27.97;21.63;;;;;;;;;;5030503;28;20056;-60
2023/05/08 04:00:12;;;;;;;25.87;21.23;;;;;;;;;;5031673;28;20106;-61
2023/05/08 04:02:40;;;;;;;27.40;21.63;;;;;;;;;;5049071;28;20057;-60
2023/05/08 04:05:25;;;;;;;28.90;21.87;;;;;;;;;;5051337;28;20053;-61
2023/05/08 04:08:11;;;;;;;28.77;23.33;;;;;;;;;;5048888;28;20045;-60
2023/05/08 04:10:43;;;;;;;26.43;21.03;;;;;;;;;;5031179;28;20515;-61
2023/05/08 04:13:11;;;;;;;33.03;22.63;;;;;;;;;;5030448;28;20076;-61
2023/05/08 04:15:49;;;;;;;27.43;21.80;;;;;;;;;;5048899;28;20110;-60
2023/05/08 04:18:16;;;;;;;26.50;21.70;;;;;;;;;;5032927;28;20087;-60
2023/05/08 04:20:44;;;;;;;26.97;21.83;;;;;;;;;;5030527;28;20053;-59
2023/05/08 04:23:13;;;;;;;26.67;21.37;;;;;;;;;;5029992;28;20047;-60
2023/05/08 04:25:40;;;;;;;27.80;20.93;;;;;;;;;;5030165;28;20041;-60
2023/05/08 04:28:06;;;;;;;25.23;20.87;;;;;;;;;;5030198;28;20045;-60
2023/05/08 04:30:32;;;;;;;25.57;21.90;;;;;;;;;;5030313;28;20084;-61
2023/05/08 04:32:59;;;;;;;27.33;21.57;;;;;;;;;;5030446;28;20049;-61
2023/05/08 04:35:25;;;;;;;27.67;21.87;;;;;;;;;;5029955;28;20057;-60
2023/05/08 04:37:51;;;;;;;26.87;21.53;;;;;;;;;;5029993;28;20054;-61
2023/05/08 04:40:17;;;;;;;25.60;20.60;;;;;;;;;;5052598;28;20487;-61
2023/05/08 04:42:46;;;;;;;25.13;20.90;;;;;;;;;;5067628;28;20045;-61
2023/05/08 04:45:12;;;;;;;25.50;20.70;;;;;;;;;;5050064;28;20128;-61
2023/05/08 04:47:38;;;;;;;24.37;19.93;;;;;;;;;;5050166;28;20144;-61
2023/05/08 04:50:04;;;;;;;23.37;19.87;;;;;;;;;;5049649;28;20790;-59
2023/05/08 04:52:30;;;;;;;25.07;20.50;;;;;;;;;;5036187;28;20128;-60
2023/05/08 04:54:56;;;;;;;22.83;19.87;;;;;;;;;;5029723;28;20057;-59
2023/05/08 04:57:22;;;;;;;28.07;20.73;;;;;;;;;;5030141;28;20435;-62
2023/05/08 04:59:48;;;;;;;24.43;19.40;;;;;;;;;;5047112;28;20095;-59
2023/05/08 05:02:14;;;;;;;23.37;19.43;;;;;;;;;;5049814;28;20045;-59
2023/05/08 05:04:40;;;;;;;23.43;18.77;;;;;;;;;;5049627;28;20044;-59
2023/05/08 05:07:06;;;;;;;24.50;19.73;;;;;;;;;;5049355;28;20040;-59
2023/05/08 05:09:35;;;;;;;23.37;19.00;;;;;;;;;;5035117;28;20702;-60
2023/05/08 05:12:02;;;;;;;22.67;19.03;;;;;;;;;;5028806;28;20522;-61
2023/05/08 05:14:28;;;;;;;21.30;17.63;;;;;;;;;;5029637;28;20057;-60
2023/05/08 05:16:54;;;;;;;22.33;18.17;;;;;;;;;;5029600;28;20044;-60
2023/05/08 05:19:20;;;;;;;20.57;17.93;;;;;;;;;;5038904;28;20048;-60
2023/05/08 05:21:46;;;;;;;19.60;17.53;;;;;;;;;;5069407;28;20075;-61
2023/05/08 05:24:12;;;;;;;20.33;18.13;;;;;;;;;;5069088;28;20049;-61
2023/05/08 05:26:38;;;;;;;18.63;16.20;;;;;;;;;;5052967;28;20110;-61
2023/05/08 05:29:04;;;;;;;22.27;17.47;;;;;;;;;;5055122;28;20636;-60
2023/05/08 05:31:30;;;;;;;18.23;16.23;;;;;;;;;;5053233;28;20589;-60
2023/05/08 05:33:56;;;;;;;19.37;16.27;;;;;;;;;;5057534;28;20063;-60
2023/05/08 05:36:22;;;;;;;18.73;16.23;;;;;;;;;;5058065;28;20045;-60
2023/05/08 05:38:48;;;;;;;18.57;16.57;;;;;;;;;;5055921;28;20059;-62
2023/05/08 05:41:15;;;;;;;20.20;16.03;;;;;;;;;;5050552;28;20041;-62
2023/05/08 05:43:41;;;;;;;18.13;14.97;;;;;;;;;;5047479;28;20060;-60
2023/05/08 05:46:07;;;;;;;19.67;16.17;;;;;;;;;;5048571;28;20041;-60
2023/05/08 05:48:34;;;;;;;17.57;15.63;;;;;;;;;;5059046;28;20395;-60
2023/05/08 05:51:00;;;;;;;18.00;15.53;;;;;;;;;;5068672;28;20040;-60
2023/05/08 05:53:26;;;;;;;16.63;14.30;;;;;;;;;;5030433;28;20427;-61
2023/05/08 05:55:52;;;;;;;17.03;14.90;;;;;;;;;;5028616;28;20451;-60
2023/05/08 05:58:18;;;;;;;16.73;14.87;;;;;;;;;;5028308;28;20172;-60
2023/05/08 06:00:44;;;;;;;16.83;15.00;;;;;;;;;;5031154;28;20040;-60
2023/05/08 06:03:10;;;;;;;15.97;13.47;;;;;;;;;;5037787;28;20120;-60
2023/05/08 06:05:37;;;;;;;19.43;13.67;;;;;;;;;;5028524;28;20076;-60
2023/05/08 06:08:04;;;;;;;16.43;14.37;;;;;;;;;;5046164;28;20041;-60
2023/05/08 06:10:30;;;;;;;16.07;13.93;;;;;;;;;;5048668;28;20044;-60
2023/05/08 06:12:56;;;;;;;15.03;13.40;;;;;;;;;;5048467;28;20049;-60
2023/05/08 06:15:23;;;;;;;15.77;14.07;;;;;;;;;;5048587;28;20048;-61
2023/05/08 06:17:49;;;;;;;14.27;12.77;;;;;;;;;;5048107;28;20041;-62
2023/05/08 06:20:15;;;;;;;14.97;13.17;;;;;;;;;;5049025;28;20048;-60
2023/05/08 06:22:41;;;;;;;19.73;14.73;;;;;;;;;;5051360;28;20041;-60
2023/05/08 06:25:08;;;;;;;14.10;12.63;;;;;;;;;;5051942;28;20491;-60
2023/05/08 06:27:34;;;;;;;15.97;13.70;;;;;;;;;;5051914;28;20044;-60
2023/05/08 06:30:01;;;;;;;16.50;12.27;;;;;;;;;;5033933;28;20057;-61
2023/05/08 06:32:27;;;;;;;14.47;12.17;;;;;;;;;;5032289;28;20104;-60
2023/05/08 06:34:53;;;;;;;13.87;12.03;;;;;;;;;;5031935;28;20050;-60
2023/05/08 06:37:19;;;;;;;13.10;11.80;;;;;;;;;;5047848;28;20055;-60
2023/05/08 06:39:45;;;;;;;15.30;11.53;;;;;;;;;;5051797;28;20567;-60
2023/05/08 06:42:11;;;;;;;14.40;12.80;;;;;;;;;;5051686;28;20045;-60
2023/05/08 06:44:37;;;;;;;14.07;12.57;;;;;;;;;;5051939;28;20487;-60
2023/05/08 06:47:03;;;;;;;13.90;11.93;;;;;;;;;;5044569;28;20136;-60
2023/05/08 06:49:29;;;;;;;16.83;12.80;;;;;;;;;;5031512;28;20108;-60
2023/05/08 06:51:55;;;;;;;13.77;12.37;;;;;;;;;;5046292;28;20044;-60
2023/05/08 06:54:21;;;;;;;13.43;12.03;;;;;;;;;;5052192;28;20048;-60
2023/05/08 06:56:47;;;;;;;13.53;12.13;;;;;;;;;;5051822;28;20055;-61
2023/05/08 06:59:13;;;;;;;15.13;12.63;;;;;;;;;;5051069;28;20073;-60
2023/05/08 07:01:40;;;;;;;18.40;13.30;;;;;;;;;;5046888;28;20041;-61
2023/05/08 07:04:06;;;;;;;15.43;13.07;;;;;;;;;;5049628;28;20060;-60
2023/05/08 07:06:33;;;;;;;15.67;13.17;;;;;;;;;;5036274;28;20045;-61
2023/05/08 07:08:59;;;;;;;13.90;12.50;;;;;;;;;;5031153;28;20049;-60
2023/05/08 07:11:25;;;;;;;13.67;12.27;;;;;;;;;;5031265;28;20613;-60
2023/05/08 07:13:51;;;;;;;16.10;12.50;;;;;;;;;;5038946;28;20036;-62
2023/05/08 07:16:17;;;;;;;12.83;11.53;;;;;;;;;;5045776;28;20503;-60
2023/05/08 07:18:43;;;;;;;12.37;11.07;;;;;;;;;;5043858;28;20099;-60
2023/05/08 07:21:10;;;;;;;12.40;11.20;;;;;;;;;;5031562;28;20080;-60
2023/05/08 07:23:36;;;;;;;12.97;11.43;;;;;;;;;;5041463;28;20047;-60
2023/05/08 07:26:02;;;;;;;12.03;10.73;;;;;;;;;;5048803;28;20037;-60
2023/05/08 07:28:28;;;;;;;12.67;11.10;;;;;;;;;;5049901;28;20094;-60
2023/05/08 07:30:54;;;;;;;13.60;11.37;;;;;;;;;;5043846;28;20404;-60
2023/05/08 07:33:21;;;;;;;12.43;11.13;;;;;;;;;;5028175;28;20504;-60
2023/05/08 07:35:47;;;;;;;11.87;10.77;;;;;;;;;;5029328;28;20056;-60
2023/05/08 07:38:13;;;;;;;12.27;10.97;;;;;;;;;;5028001;28;20424;-60
2023/05/08 07:40:39;;;;;;;11.97;10.77;;;;;;;;;;5028445;28;20107;-60
2023/05/08 07:43:05;;;;;;;11.73;10.57;;;;;;;;;;5029358;28;20136;-60
2023/05/08 07:45:31;;;;;;;12.03;10.83;;;;;;;;;;5036460;28;20107;-60
2023/05/08 07:47:58;;;;;;;12.23;10.80;;;;;;;;;;5048830;28;20060;-60
2023/05/08 07:50:25;;;;;;;11.33;10.23;;;;;;;;;;5049930;28;20060;-60
2023/05/08 07:52:51;;;;;;;11.67;10.57;;;;;;;;;;5049739;28;20055;-60
2023/05/08 07:55:18;;;;;;;12.43;11.17;;;;;;;;;;5030587;28;20561;-60
2023/05/08 07:57:44;;;;;;;11.27;10.07;;;;;;;;;;5032881;28;20087;-60
2023/05/08 08:00:11;;;;;;;10.93;9.93;;;;;;;;;;5029640;28;20045;-60
2023/05/08 08:02:38;;;;;;;11.30;10.27;;;;;;;;;;5031276;28;20819;-60
2023/05/08 08:05:04;;;;;;;12.23;10.87;;;;;;;;;;5030773;28;20172;-60
2023/05/08 08:07:31;;;;;;;11.13;9.77;;;;;;;;;;5031072;28;20129;-60
2023/05/08 08:09:58;;;;;;;11.90;10.70;;;;;;;;;;5043809;28;20124;-60
2023/05/08 08:12:24;;;;;;;10.23;9.20;;;;;;;;;;5050267;28;20072;-60
2023/05/08 08:14:50;;;;;;;11.33;10.07;;;;;;;;;;5049960;28;20491;-60
2023/05/08 08:17:16;;;;;;;12.77;11.57;;;;;;;;;;5050237;28;20041;-60
2023/05/08 08:19:43;;;;;;;11.10;10.00;;;;;;;;;;5049990;28;20049;-60
2023/05/08 08:22:09;;;;;;;11.93;10.83;;;;;;;;;;5048704;28;20102;-60
2023/05/08 08:24:35;;;;;;;11.13;10.13;;;;;;;;;;5049766;28;21092;-60
2023/05/08 08:27:02;;;;;;;12.17;10.80;;;;;;;;;;5049892;28;20053;-60
2023/05/08 08:29:29;;;;;;;12.30;11.10;;;;;;;;;;5049060;28;20121;-60
2023/05/08 08:31:55;;;;;;;16.83;11.43;;;;;;;;;;5048601;28;20049;-60
2023/05/08 08:34:21;;;;;;;12.13;10.93;;;;;;;;;;5048619;28;20049;-60
2023/05/08 08:36:47;;;;;;;12.57;11.13;;;;;;;;;;5049128;28;20088;-60
2023/05/08 08:39:13;;;;;;;11.70;10.60;;;;;;;;;;5049463;28;20049;-60
2023/05/08 08:41:39;;;;;;;10.83;9.70;;;;;;;;;;5049415;28;20041;-60
2023/05/08 08:44:06;;;;;;;11.87;10.77;;;;;;;;;;5049462;28;20049;-60
2023/05/08 08:46:32;;;;;;;12.43;10.93;;;;;;;;;;5049612;28;20088;-61
2023/05/08 08:48:58;;;;;;;12.20;11.10;;;;;;;;;;5049338;28;20052;-61
2023/05/08 08:51:25;;;;;;;13.13;10.53;;;;;;;;;;5049416;28;20045;-60
2023/05/08 08:53:54;;;;;;;11.57;10.47;;;;;;;;;;5049441;28;20091;-61
2023/05/08 08:56:21;;;;;;;12.20;11.00;;;;;;;;;;5048928;28;20040;-60
2023/05/08 08:58:49;;;;;;;13.57;11.60;;;;;;;;;;5049425;28;20478;-61
2023/05/08 09:01:17;;;;;;;11.63;10.53;;;;;;;;;;5049181;28;20132;-60
2023/05/08 09:03:43;;;;;;;11.93;10.70;;;;;;;;;;5063438;28;20766;-60
2023/05/08 09:06:09;;;;;;;11.93;10.73;;;;;;;;;;5064756;28;20053;-60
2023/05/08 09:08:36;;;;;;;13.23;11.50;;;;;;;;;;5056793;28;20123;-60
2023/05/08 09:11:02;;;;;;;12.13;10.87;;;;;;;;;;5056750;28;20041;-60
2023/05/08 09:13:29;;;;;;;13.53;11.90;;;;;;;;;;5051886;28;20114;-60
2023/05/08 09:15:57;;;;;;;13.30;11.87;;;;;;;;;;5049219;28;20041;-60
2023/05/08 09:18:23;;;;;;;12.77;11.57;;;;;;;;;;5049040;28;20100;-60
2023/05/08 09:20:50;;;;;;;14.00;12.67;;;;;;;;;;5049004;28;20052;-61
2023/05/08 09:23:16;;;;;;;11.97;10.87;;;;;;;;;;5048947;28;20056;-61
2023/05/08 09:25:42;;;;;;;12.23;11.13;;;;;;;;;;5048930;28;20120;-61
2023/05/08 09:28:18;;;;;;;12.20;11.10;;;;;;;;;;5049058;28;20044;-61
2023/05/08 09:30:51;;;;;;;12.73;11.57;;;;;;;;;;5048674;28;20121;-60
2023/05/08 09:33:18;;;;;;;12.47;11.20;;;;;;;;;;5048986;28;20102;-61
2023/05/08 09:35:44;;;;;;;13.53;11.60;;;;;;;;;;5049373;28;20055;-60
2023/05/08 09:38:30;;;;;;;12.87;11.77;;;;;;;;;;5048860;28;20044;-60
2023/05/08 09:41:08;;;;;;;13.23;11.83;;;;;;;;;;5048379;28;20059;-61
2023/05/08 09:43:34;;;;;;;13.80;12.50;;;;;;;;;;5048978;28;20076;-61
2023/05/08 09:46:21;;;;;;;13.90;12.43;;;;;;;;;;5048695;28;20135;-60
2023/05/08 09:48:47;;;;;;;14.53;13.07;;;;;;;;;;5049097;28;20503;-61
2023/05/08 09:51:13;;;;;;;13.57;12.27;;;;;;;;;;5048721;28;20110;-60
2023/05/08 09:53:40;;;;;;;14.70;12.27;;;;;;;;;;5048237;28;20052;-60
2023/05/08 09:56:06;;;;;;;14.60;13.10;;;;;;;;;;5048172;28;20073;-60
2023/05/08 09:58:42;;;;;;;14.77;13.37;;;;;;;;;;5049032;28;20052;-60
2023/05/08 10:01:08;;;;;;;13.40;12.13;;;;;;;;;;5048483;28;20045;-60
2023/05/08 10:04:01;;;;;;;13.90;12.70;;;;;;;;;;5047662;28;20114;-60
2023/05/08 10:06:27;;;;;;;14.80;13.30;;;;;;;;;;5047448;28;20561;-60
2023/05/08 10:09:06;;;;;;;14.70;13.40;;;;;;;;;;5048641;28;20422;-60
2023/05/08 10:11:32;;;;;;;15.40;13.97;;;;;;;;;;5048692;28;20182;-60
2023/05/08 10:13:58;;;;;;;13.68;12.27;;;;;;;;;;5048597;28;20127;-60
2023/05/08 10:16:27;;;;;;;15.20;13.73;;;;;;;;;;5048800;28;20048;-60
2023/05/08 10:18:55;;;;;;;15.18;12.38;;;;;;;;;;5048859;28;20053;-60
2023/05/08 10:21:22;;;;;;;14.07;12.77;;;;;;;;;;5048756;28;20128;-60
2023/05/08 10:23:48;;;;;;;13.87;12.40;;;;;;;;;;5048934;28;20052;-60
2023/05/08 10:26:22;;;;;;;14.18;12.77;;;;;;;;;;5048312;28;20079;-60
2023/05/08 10:28:55;;;;;;;15.40;13.93;;;;;;;;;;5046947;28;20041;-60
2023/05/08 10:31:24;;;;;;;15.52;14.02;;;;;;;;;;5048138;28;20095;-61
2023/05/08 10:33:54;;;;;;;14.55;13.13;;;;;;;;;;5046613;28;20577;-60
2023/05/08 10:36:21;;;;;;;13.73;12.52;;;;;;;;;;5046796;28;20045;-60
2023/05/08 10:38:47;;;;;;;15.35;13.80;;;;;;;;;;5048329;28;20041;-61
2023/05/08 10:41:13;;;;;;;14.70;13.25;;;;;;;;;;5044399;28;20049;-61
2023/05/08 10:43:41;;;;;;;15.20;13.70;;;;;;;;;;5046557;28;20045;-60
2023/05/08 10:46:11;;;;;;;15.27;13.77;;;;;;;;;;5047159;28;20051;-61
2023/05/08 10:48:47;;;;;;;14.98;13.43;;;;;;;;;;5047733;28;20049;-62
2023/05/08 10:51:15;;;;;;;15.40;13.98;;;;;;;;;;5044964;28;20056;-62
2023/05/08 10:53:50;;;;;;;14.70;13.30;;;;;;;;;;5034710;28;20431;-62
2023/05/08 10:56:16;;;;;;;15.23;13.73;;;;;;;;;;5031779;28;20175;-62
2023/05/08 10:58:42;;;;;;;15.13;13.63;;;;;;;;;;5027597;28;20056;-62
2023/05/08 11:01:09;;;;;;;15.57;14.07;;;;;;;;;;5028014;28;20041;-62
2023/05/08 11:03:40;;;;;;;15.25;13.68;;;;;;;;;;5028216;28;20057;-62
2023/05/08 11:06:06;;;;;;;14.20;12.73;;;;;;;;;;5027491;28;20045;-63
2023/05/08 11:08:33;;;;;;;14.77;13.32;;;;;;;;;;5030561;28;20084;-61
2023/05/08 11:10:59;;;;;;;14.00;12.73;;;;;;;;;;5043628;28;20491;-61
2023/05/08 11:13:44;;;;;;;13.65;12.43;;;;;;;;;;5033026;28;20061;-61
2023/05/08 11:16:10;;;;;;;14.30;12.80;;;;;;;;;;5031210;28;20072;-62
2023/05/08 11:18:36;;;;;;;14.65;13.25;;;;;;;;;;5031138;28;20042;-62
2023/05/08 11:21:03;;;;;;;13.35;12.05;;;;;;;;;;5043263;28;20741;-62
2023/05/08 11:23:30;;;;;;;14.60;13.20;;;;;;;;;;5050743;28;20546;-61
2023/05/08 11:26:00;;;;;;;14.65;12.95;;;;;;;;;;5048917;28;20485;-62
2023/05/08 11:28:27;;;;;;;13.00;11.70;;;;;;;;;;5050726;28;20051;-62
2023/05/08 11:30:56;;;;;;;14.50;12.68;;;;;;;;;;5050140;28;20507;-62
2023/05/08 11:33:23;;;;;;;13.13;11.93;;;;;;;;;;5041615;28;20064;-61
2023/05/08 11:36:12;;;;;;;12.48;11.38;;;;;;;;;;5033807;28;20107;-61
2023/05/08 11:38:38;;;;;;;14.48;12.93;;;;;;;;;;5049859;28;20132;-62
2023/05/08 11:41:20;;;;;;;13.70;12.50;;;;;;;;;;5049797;28;20048;-61
2023/05/08 11:43:57;;;;;;;15.20;13.80;;;;;;;;;;5050858;28;20090;-61
2023/05/08 11:46:23;;;;;;;16.25;14.57;;;;;;;;;;5049021;28;20424;-62
2023/05/08 11:48:59;;;;;;;15.60;13.98;;;;;;;;;;5044539;28;20045;-62
2023/05/08 11:51:29;;;;;;;14.05;12.52;;;;;;;;;;5034625;28;20049;-62
2023/05/08 11:53:56;;;;;;;14.00;12.60;;;;;;;;;;5059989;28;20436;-62
2023/05/08 11:56:22;;;;;;;14.35;13.05;;;;;;;;;;5061499;28;20417;-61
2023/05/08 11:58:48;;;;;;;15.68;14.30;;;;;;;;;;5069567;28;20047;-61
2023/05/08 12:01:19;;;;;;;13.55;12.32;;;;;;;;;;5061230;28;20041;-62
2023/05/08 12:03:45;;;;;;;12.88;11.70;;;;;;;;;;5030469;28;20057;-61
2023/05/08 12:06:11;;;;;;;13.43;12.32;;;;;;;;;;5030276;28;20041;-62
2023/05/08 12:08:38;;;;;;;14.32;13.02;;;;;;;;;;5048845;28;20052;-61
2023/05/08 12:11:04;;;;;;;14.30;13.00;;;;;;;;;;5050192;28;20041;-61
2023/05/08 12:13:30;;;;;;;14.13;12.90;;;;;;;;;;5034395;28;20071;-61
2023/05/08 12:15:57;;;;;;;12.60;11.57;;;;;;;;;;5031003;28;20042;-61
2023/05/08 12:18:25;;;;;;;13.80;12.60;;;;;;;;;;5038864;28;20048;-61
2023/05/08 12:20:58;;;;;;;13.35;10.73;;;;;;;;;;5047992;28;20049;-62
2023/05/08 12:23:28;;;;;;;13.60;12.20;;;;;;;;;;5030405;28;20053;-62
2023/05/08 12:25:54;;;;;;;13.43;12.30;;;;;;;;;;5026684;28;20045;-62
2023/05/08 12:28:21;;;;;;;13.00;11.68;;;;;;;;;;5028339;28;20061;-61
2023/05/08 12:30:48;;;;;;;12.60;11.30;;;;;;;;;;5034808;28;20467;-61
2023/05/08 12:33:14;;;;;;;11.07;9.88;;;;;;;;;;5043290;28;20059;-60
2023/05/08 12:35:40;;;;;;;10.50;9.50;;;;;;;;;;5049140;28;20041;-61
2023/05/08 12:38:07;;;;;;;12.23;10.93;;;;;;;;;;5049376;28;20049;-61
2023/05/08 12:40:35;;;;;;;12.18;11.00;;;;;;;;;;5049356;28;20049;-61
2023/05/08 12:43:01;;;;;;;12.10;10.90;;;;;;;;;;5048801;28;20045;-61
2023/05/08 12:45:28;;;;;;;13.45;12.15;;;;;;;;;;5049232;28;20040;-61
2023/05/08 12:47:58;;;;;;;14.30;13.05;;;;;;;;;;5049024;28;20052;-61
2023/05/08 12:50:24;;;;;;;11.80;10.60;;;;;;;;;;5050945;28;20052;-62
2023/05/08 12:52:51;;;;;;;12.82;11.40;;;;;;;;;;5057069;28;20125;-62
2023/05/08 12:55:24;;;;;;;13.60;12.30;;;;;;;;;;5058618;28;20036;-61
2023/05/08 12:57:58;;;;;;;5.97;5.43;;;;;;;;;;5059002;28;20044;-61
2023/05/08 13:00:24;;;;;;;6.93;6.03;;;;;;;;;;5058795;28;20051;-60
2023/05/08 13:02:52;;;;;;;7.32;6.63;;;;;;;;;;5050210;28;20511;-62
2023/05/08 13:05:19;;;;;;;10.57;8.15;;;;;;;;;;5049431;28;20044;-61
2023/05/08 13:07:45;;;;;;;14.10;11.02;;;;;;;;;;5051395;28;20045;-61
2023/05/08 13:10:11;;;;;;;12.13;11.02;;;;;;;;;;5047918;28;20129;-61
2023/05/08 13:12:37;;;;;;;12.25;11.00;;;;;;;;;;5046071;28;20055;-61
2023/05/08 13:15:03;;;;;;;14.27;12.80;;;;;;;;;;5053115;28;20041;-61
2023/05/08 13:17:30;;;;;;;14.15;12.75;;;;;;;;;;5056677;28;20071;-61
2023/05/08 13:19:56;;;;;;;15.05;13.60;;;;;;;;;;5057002;28;20041;-62
2023/05/08 13:22:25;;;;;;;13.90;12.43;;;;;;;;;;5055959;28;20057;-61
2023/05/08 13:24:51;;;;;;;15.98;14.48;;;;;;;;;;5056146;28;20041;-61
2023/05/08 13:27:17;;;;;;;17.20;13.48;;;;;;;;;;5057554;28;20040;-61
2023/05/08 13:29:43;;;;;;;15.00;13.57;;;;;;;;;;5057413;28;20037;-61
2023/05/08 13:32:09;;;;;;;15.07;13.63;;;;;;;;;;5053650;28;20403;-61
2023/05/08 13:34:36;;;;;;;14.27;13.07;;;;;;;;;;5056909;28;20045;-61
2023/05/08 13:37:02;;;;;;;16.63;14.93;;;;;;;;;;5056326;28;20051;-61
2023/05/08 13:39:30;;;;;;;15.07;13.77;;;;;;;;;;5061011;28;20067;-61
2023/05/08 13:41:56;;;;;;;15.75;14.35;;;;;;;;;;5067390;28;20055;-61
2023/05/08 13:44:23;;;;;;;16.88;15.32;;;;;;;;;;5053767;28;20049;-61
2023/05/08 13:46:49;;;;;;;18.20;16.42;;;;;;;;;;5048545;28;20045;-61
2023/05/08 13:49:17;;;;;;;17.02;15.27;;;;;;;;;;5038799;28;20042;-62
2023/05/08 13:51:43;;;;;;;14.88;13.68;;;;;;;;;;5061971;28;20045;-62
2023/05/08 13:54:09;;;;;;;15.43;14.02;;;;;;;;;;5056607;28;20055;-61
2023/05/08 13:56:35;;;;;;;16.88;15.15;;;;;;;;;;5052097;28;20037;-61
2023/05/08 13:59:01;;;;;;;16.17;14.68;;;;;;;;;;5051608;28;20091;-61
2023/05/08 14:01:27;;;;;;;18.45;16.80;;;;;;;;;;5047683;28;20426;-61
2023/05/08 14:03:53;;;;;;;16.83;15.23;;;;;;;;;;5053074;28;20048;-61
2023/05/08 14:06:20;;;;;;;19.60;17.90;;;;;;;;;;5052185;28;20078;-62
2023/05/08 14:08:46;;;;;;;17.67;16.10;;;;;;;;;;5059663;28;20049;-61
2023/05/08 14:11:12;;;;;;;18.83;17.13;;;;;;;;;;5056664;28;20558;-61
2023/05/08 14:13:38;;;;;;;18.17;16.55;;;;;;;;;;5059173;28;20056;-61
2023/05/08 14:16:06;;;;;;;19.00;16.17;;;;;;;;;;5056520;28;20044;-61
2023/05/08 14:18:33;;;;;;;20.10;18.30;;;;;;;;;;5054603;28;20056;-61
2023/05/08 14:20:59;;;;;;;21.02;19.00;;;;;;;;;;5065964;28;20051;-61
2023/05/08 14:23:25;;;;;;;18.05;16.45;;;;;;;;;;5069416;28;20048;-61